sensor_id;sensor_type;location;lat;lon;timestamp;pressure;altitude;pressure_sealevel;temperature;humidity
70127;BME280;57491;42.694;23.314;2023-04-06T00:02:19;94905.56;;;3.33;60.71
70127;BME280;57491;42.694;23.314;2023-04-06T00:04:46;94903.25;;;3.30;56.52
70127;BME280;57491;42.694;23.314;2023-04-06T00:07:13;94890.41;;;3.30;56.02
70127;BME280;57491;42.694;23.314;2023-04-06T00:09:39;94890.28;;;3.31;60.57
70127;BME280;57491;42.694;23.314;2023-04-06T00:12:06;94883.66;;;3.29;58.57
70127;BME280;57491;42.694;23.314;2023-04-06T00:14:34;94883.91;;;3.26;55.63
70127;BME280;57491;42.694;23.314;2023-04-06T00:17:01;94882.72;;;3.20;55.84
70127;BME280;57491;42.694;23.314;2023-04-06T00:19:28;94872.63;;;3.09;55.52
70127;BME280;57491;42.694;23.314;2023-04-06T00:21:55;94876.22;;;3.16;58.02
70127;BME280;57491;42.694;23.314;2023-04-06T00:24:22;94867.19;;;3.12;56.27
70127;BME280;57491;42.694;23.314;2023-04-06T00:26:49;94874.47;;;3.26;63.00
70127;BME280;57491;42.694;23.314;2023-04-06T00:29:16;94866.34;;;3.31;60.05
70127;BME280;57491;42.694;23.314;2023-04-06T00:31:44;94863.59;;;3.42;57.46
70127;BME280;57491;42.694;23.314;2023-04-06T00:34:11;94859.66;;;3.38;58.29
70127;BME280;57491;42.694;23.314;2023-04-06T00:36:38;94862.22;;;3.47;59.92
70127;BME280;57491;42.694;23.314;2023-04-06T00:39:04;94856.94;;;3.49;62.87
70127;BME280;57491;42.694;23.314;2023-04-06T00:41:31;94857.72;;;3.59;58.56
70127;BME280;57491;42.694;23.314;2023-04-06T00:43:59;94851.72;;;3.68;62.70
70127;BME280;57491;42.694;23.314;2023-04-06T00:46:26;94856.44;;;3.73;59.28
70127;BME280;57491;42.694;23.314;2023-04-06T00:48:54;94860.06;;;3.80;59.00
70127;BME280;57491;42.694;23.314;2023-04-06T00:51:22;94854.47;;;3.84;62.08
70127;BME280;57491;42.694;23.314;2023-04-06T00:53:48;94846.03;;;3.92;60.90
70127;BME280;57491;42.694;23.314;2023-04-06T00:56:15;94848.19;;;3.96;60.65
70127;BME280;57491;42.694;23.314;2023-04-06T00:58:42;94847.44;;;3.86;54.66
70127;BME280;57491;42.694;23.314;2023-04-06T01:01:09;94848.47;;;3.66;54.73
70127;BME280;57491;42.694;23.314;2023-04-06T01:03:35;94856.47;;;3.63;61.41
70127;BME280;57491;42.694;23.314;2023-04-06T01:06:04;94855.28;;;3.57;55.62
70127;BME280;57491;42.694;23.314;2023-04-06T01:08:31;94848.72;;;3.45;55.14
70127;BME280;57491;42.694;23.314;2023-04-06T01:10:58;94848.75;;;3.36;57.71
70127;BME280;57491;42.694;23.314;2023-04-06T01:13:26;94848.47;;;3.29;55.12
70127;BME280;57491;42.694;23.314;2023-04-06T01:15:53;94844.56;;;3.25;55.97
70127;BME280;57491;42.694;23.314;2023-04-06T01:18:25;94848.97;;;3.42;61.54
70127;BME280;57491;42.694;23.314;2023-04-06T01:20:52;94849.09;;;3.50;55.75
70127;BME280;57491;42.694;23.314;2023-04-06T01:23:20;94844.34;;;3.55;55.36
70127;BME280;57491;42.694;23.314;2023-04-06T01:25:47;94844.16;;;3.67;58.57
70127;BME280;57491;42.694;23.314;2023-04-06T01:28:14;94838.34;;;3.65;55.08
70127;BME280;57491;42.694;23.314;2023-04-06T01:30:41;94843.50;;;3.65;56.47
70127;BME280;57491;42.694;23.314;2023-04-06T01:33:08;94838.34;;;3.65;60.81
70127;BME280;57491;42.694;23.314;2023-04-06T01:35:35;94831.91;;;3.51;54.97
70127;BME280;57491;42.694;23.314;2023-04-06T01:38:01;94832.44;;;3.54;56.03
70127;BME280;57491;42.694;23.314;2023-04-06T01:40:30;94831.00;;;3.70;58.44
70127;BME280;57491;42.694;23.314;2023-04-06T01:42:57;94829.78;;;3.74;55.26
70127;BME280;57491;42.694;23.314;2023-04-06T01:45:23;94829.44;;;3.59;54.80
70127;BME280;57491;42.694;23.314;2023-04-06T01:47:50;94825.69;;;3.53;55.24
70127;BME280;57491;42.694;23.314;2023-04-06T01:50:17;94832.56;;;3.53;55.23
70127;BME280;57491;42.694;23.314;2023-04-06T01:52:44;94824.06;;;3.52;55.77
70127;BME280;57491;42.694;23.314;2023-04-06T01:55:11;94828.84;;;3.65;60.88
70127;BME280;57491;42.694;23.314;2023-04-06T01:57:39;94823.91;;;3.81;59.83
70127;BME280;57491;42.694;23.314;2023-04-06T02:00:07;94821.88;;;3.85;56.09
70127;BME280;57491;42.694;23.314;2023-04-06T02:02:34;94818.56;;;3.92;57.93
70127;BME280;57491;42.694;23.314;2023-04-06T02:05:00;94818.03;;;3.89;56.22
70127;BME280;57491;42.694;23.314;2023-04-06T02:07:27;94812.81;;;3.81;56.34
70127;BME280;57491;42.694;23.314;2023-04-06T02:09:54;94806.31;;;3.86;57.98
70127;BME280;57491;42.694;23.314;2023-04-06T02:12:21;94816.00;;;3.92;60.29
70127;BME280;57491;42.694;23.314;2023-04-06T02:14:50;94818.31;;;3.68;54.40
70127;BME280;57491;42.694;23.314;2023-04-06T02:17:17;94808.59;;;3.62;57.41
70127;BME280;57491;42.694;23.314;2023-04-06T02:19:44;94808.50;;;3.81;61.03
70127;BME280;57491;42.694;23.314;2023-04-06T02:22:11;94808.75;;;3.78;57.46
70127;BME280;57491;42.694;23.314;2023-04-06T02:24:38;94807.91;;;3.87;58.71
70127;BME280;57491;42.694;23.314;2023-04-06T02:27:05;94807.00;;;3.79;57.63
70127;BME280;57491;42.694;23.314;2023-04-06T02:29:32;94808.09;;;3.76;57.00
70127;BME280;57491;42.694;23.314;2023-04-06T02:32:01;94815.81;;;3.76;58.68
70127;BME280;57491;42.694;23.314;2023-04-06T02:34:28;94810.72;;;3.67;56.85
70127;BME280;57491;42.694;23.314;2023-04-06T02:36:55;94809.81;;;3.85;62.26
70127;BME280;57491;42.694;23.314;2023-04-06T02:39:21;94815.47;;;3.89;57.18
70127;BME280;57491;42.694;23.314;2023-04-06T02:41:48;94820.09;;;3.85;56.89
70127;BME280;57491;42.694;23.314;2023-04-06T02:44:15;94810.16;;;3.73;57.94
70127;BME280;57491;42.694;23.314;2023-04-06T02:46:42;94812.00;;;3.80;63.50
70127;BME280;57491;42.694;23.314;2023-04-06T02:49:10;94817.00;;;3.82;58.51
70127;BME280;57491;42.694;23.314;2023-04-06T02:51:37;94813.63;;;3.81;60.25
70127;BME280;57491;42.694;23.314;2023-04-06T02:54:04;94812.81;;;3.81;57.50
70127;BME280;57491;42.694;23.314;2023-04-06T02:56:31;94816.69;;;3.67;57.31
70127;BME280;57491;42.694;23.314;2023-04-06T02:58:57;94813.16;;;3.68;57.63
70127;BME280;57491;42.694;23.314;2023-04-06T03:01:25;94817.06;;;3.72;60.54
70127;BME280;57491;42.694;23.314;2023-04-06T03:03:52;94812.78;;;3.90;63.34
70127;BME280;57491;42.694;23.314;2023-04-06T03:06:20;94812.47;;;4.11;63.12
70127;BME280;57491;42.694;23.314;2023-04-06T03:08:47;94811.47;;;4.22;61.32
70127;BME280;57491;42.694;23.314;2023-04-06T03:11:14;94810.28;;;4.16;56.77
70127;BME280;57491;42.694;23.314;2023-04-06T03:13:41;94810.44;;;4.15;56.43
70127;BME280;57491;42.694;23.314;2023-04-06T03:16:08;94805.56;;;4.12;59.31
70127;BME280;57491;42.694;23.314;2023-04-06T03:18:34;94805.19;;;4.07;54.37
70127;BME280;57491;42.694;23.314;2023-04-06T03:21:01;94778.97;;;3.85;53.99
70127;BME280;57491;42.694;23.314;2023-04-06T03:23:30;94811.50;;;3.77;54.53
70127;BME280;57491;42.694;23.314;2023-04-06T03:25:56;94811.25;;;3.70;54.95
70127;BME280;57491;42.694;23.314;2023-04-06T03:28:23;94811.69;;;3.66;55.32
70127;BME280;57491;42.694;23.314;2023-04-06T03:30:50;94811.97;;;3.63;54.96
70127;BME280;57491;42.694;23.314;2023-04-06T03:33:17;94781.22;;;3.43;56.98
70127;BME280;57491;42.694;23.314;2023-04-06T03:35:44;94808.59;;;3.62;55.79
70127;BME280;57491;42.694;23.314;2023-04-06T03:38:10;94817.53;;;3.58;54.55
70127;BME280;57491;42.694;23.314;2023-04-06T03:40:39;94808.03;;;3.68;55.23
70127;BME280;57491;42.694;23.314;2023-04-06T03:43:06;94810.22;;;3.63;54.54
70127;BME280;57491;42.694;23.314;2023-04-06T03:45:32;94801.63;;;3.72;57.07
70127;BME280;57491;42.694;23.314;2023-04-06T03:48:00;94804.28;;;3.80;55.27
70127;BME280;57491;42.694;23.314;2023-04-06T03:50:26;94797.25;;;3.82;54.86
70127;BME280;57491;42.694;23.314;2023-04-06T03:52:53;94802.41;;;3.82;54.75
70127;BME280;57491;42.694;23.314;2023-04-06T03:55:20;94807.69;;;3.81;55.57
70127;BME280;57491;42.694;23.314;2023-04-06T03:57:49;94808.28;;;3.92;55.45
70127;BME280;57491;42.694;23.314;2023-04-06T04:00:16;94810.13;;;4.00;55.47
70127;BME280;57491;42.694;23.314;2023-04-06T04:02:42;94809.25;;;3.91;55.82
70127;BME280;57491;42.694;23.314;2023-04-06T04:05:09;94807.69;;;3.81;56.62
70127;BME280;57491;42.694;23.314;2023-04-06T04:07:36;94803.34;;;3.81;61.52
70127;BME280;57491;42.694;23.314;2023-04-06T04:10:03;94811.09;;;3.72;56.59
70127;BME280;57491;42.694;23.314;2023-04-06T04:12:30;94813.34;;;3.84;62.66
70127;BME280;57491;42.694;23.314;2023-04-06T04:14:58;94819.59;;;3.82;56.29
70127;BME280;57491;42.694;23.314;2023-04-06T04:17:25;94814.53;;;3.90;57.14
70127;BME280;57491;42.694;23.314;2023-04-06T04:19:52;94810.63;;;3.86;55.58
70127;BME280;57491;42.694;23.314;2023-04-06T04:22:19;94817.16;;;3.80;58.42
70127;BME280;57491;42.694;23.314;2023-04-06T04:24:46;94808.91;;;3.77;56.60
70127;BME280;57491;42.694;23.314;2023-04-06T04:27:13;94802.53;;;3.81;57.05
70127;BME280;57491;42.694;23.314;2023-04-06T04:29:40;94808.19;;;3.84;60.71
70127;BME280;57491;42.694;23.314;2023-04-06T04:32:10;94810.28;;;3.98;58.23
70127;BME280;57491;42.694;23.314;2023-04-06T04:34:37;94806.16;;;4.05;57.22
70127;BME280;57491;42.694;23.314;2023-04-06T04:37:05;94808.97;;;4.12;56.41
70127;BME280;57491;42.694;23.314;2023-04-06T04:39:32;94813.09;;;4.23;58.51
70127;BME280;57491;42.694;23.314;2023-04-06T04:42:00;94813.22;;;4.39;56.86
70127;BME280;57491;42.694;23.314;2023-04-06T04:44:28;94812.66;;;4.45;59.77
70127;BME280;57491;42.694;23.314;2023-04-06T04:46:55;94812.28;;;4.22;53.74
70127;BME280;57491;42.694;23.314;2023-04-06T04:49:23;94803.75;;;4.22;55.68
70127;BME280;57491;42.694;23.314;2023-04-06T04:51:50;94801.94;;;4.32;54.41
70127;BME280;57491;42.694;23.314;2023-04-06T04:54:18;94804.25;;;4.43;57.73
70127;BME280;57491;42.694;23.314;2023-04-06T04:56:45;94807.34;;;4.29;53.20
70127;BME280;57491;42.694;23.314;2023-04-06T04:59:11;94811.34;;;4.23;54.04
70127;BME280;57491;42.694;23.314;2023-04-06T05:01:38;94805.06;;;4.26;54.60
70127;BME280;57491;42.694;23.314;2023-04-06T05:04:05;94810.59;;;4.31;60.23
70127;BME280;57491;42.694;23.314;2023-04-06T05:06:33;94804.41;;;4.24;53.81
70127;BME280;57491;42.694;23.314;2023-04-06T05:09:00;94801.94;;;4.32;55.56
70127;BME280;57491;42.694;23.314;2023-04-06T05:11:27;94802.00;;;4.22;54.75
70127;BME280;57491;42.694;23.314;2023-04-06T05:13:54;94802.69;;;4.32;58.90
70127;BME280;57491;42.694;23.314;2023-04-06T05:16:21;94795.50;;;4.54;54.65
70127;BME280;57491;42.694;23.314;2023-04-06T05:18:48;94798.28;;;4.60;53.76
70127;BME280;57491;42.694;23.314;2023-04-06T05:21:15;94803.50;;;4.68;55.72
70127;BME280;57491;42.694;23.314;2023-04-06T05:23:43;94806.44;;;4.56;53.31
70127;BME280;57491;42.694;23.314;2023-04-06T05:26:10;94799.78;;;4.45;54.40
70127;BME280;57491;42.694;23.314;2023-04-06T05:28:37;94804.94;;;4.45;53.59
70127;BME280;57491;42.694;23.314;2023-04-06T05:31:03;94808.09;;;4.39;54.90
70127;BME280;57491;42.694;23.314;2023-04-06T05:33:30;94806.47;;;4.38;54.45
70127;BME280;57491;42.694;23.314;2023-04-06T05:35:57;94810.34;;;4.60;58.02
70127;BME280;57491;42.694;23.314;2023-04-06T05:38:26;94801.06;;;4.67;54.65
70127;BME280;57491;42.694;23.314;2023-04-06T05:40:54;94798.81;;;4.64;54.45
70127;BME280;57491;42.694;23.314;2023-04-06T05:43:21;94802.47;;;4.61;55.52
70127;BME280;57491;42.694;23.314;2023-04-06T05:45:48;94802.91;;;4.74;59.09
70127;BME280;57491;42.694;23.314;2023-04-06T05:48:14;94795.44;;;4.89;60.01
70127;BME280;57491;42.694;23.314;2023-04-06T05:50:41;94803.03;;;4.90;55.20
70127;BME280;57491;42.694;23.314;2023-04-06T05:53:08;94801.91;;;4.93;55.10
70127;BME280;57491;42.694;23.314;2023-04-06T05:55:35;94800.00;;;4.77;53.93
70127;BME280;57491;42.694;23.314;2023-04-06T05:58:03;94795.66;;;4.52;53.96
70127;BME280;57491;42.694;23.314;2023-04-06T06:00:30;94794.84;;;4.52;57.93
70127;BME280;57491;42.694;23.314;2023-04-06T06:02:57;94797.75;;;4.74;55.87
70127;BME280;57491;42.694;23.314;2023-04-06T06:05:24;94794.22;;;4.75;56.62
70127;BME280;57491;42.694;23.314;2023-04-06T06:07:51;94789.94;;;4.84;57.28
70127;BME280;57491;42.694;23.314;2023-04-06T06:10:18;94795.84;;;5.02;57.11
70127;BME280;57491;42.694;23.314;2023-04-06T06:12:45;94793.31;;;4.84;54.37
70127;BME280;57491;42.694;23.314;2023-04-06T06:15:13;94791.28;;;4.70;54.83
70127;BME280;57491;42.694;23.314;2023-04-06T06:17:40;94794.38;;;4.56;55.42
70127;BME280;57491;42.694;23.314;2023-04-06T06:20:07;94788.84;;;4.69;55.78
70127;BME280;57491;42.694;23.314;2023-04-06T06:22:34;94785.03;;;4.99;54.63
70127;BME280;57491;42.694;23.314;2023-04-06T06:25:01;94787.09;;;5.21;54.96
70127;BME280;57491;42.694;23.314;2023-04-06T06:27:28;94792.13;;;5.64;57.76
70127;BME280;57491;42.694;23.314;2023-04-06T06:29:55;94791.31;;;5.64;52.35
70127;BME280;57491;42.694;23.314;2023-04-06T06:32:23;94788.59;;;5.65;52.46
70127;BME280;57491;42.694;23.314;2023-04-06T06:34:50;94788.81;;;5.80;56.08
70127;BME280;57491;42.694;23.314;2023-04-06T06:37:17;94791.63;;;6.03;52.01
70127;BME280;57491;42.694;23.314;2023-04-06T06:39:44;94788.84;;;5.88;51.50
70127;BME280;57491;42.694;23.314;2023-04-06T06:42:11;94791.53;;;5.78;52.09
70127;BME280;57491;42.694;23.314;2023-04-06T06:44:38;94787.81;;;5.81;51.61
70127;BME280;57491;42.694;23.314;2023-04-06T06:47:05;94792.88;;;5.91;52.02
70127;BME280;57491;42.694;23.314;2023-04-06T06:49:33;94796.66;;;6.20;52.80
70127;BME280;57491;42.694;23.314;2023-04-06T06:52:00;94791.66;;;6.19;50.87
70127;BME280;57491;42.694;23.314;2023-04-06T06:54:27;94797.78;;;6.26;51.17
70127;BME280;57491;42.694;23.314;2023-04-06T06:56:53;94799.94;;;6.39;50.15
70127;BME280;57491;42.694;23.314;2023-04-06T06:59:20;94799.44;;;6.51;49.90
70127;BME280;57491;42.694;23.314;2023-04-06T07:01:47;94797.16;;;6.81;50.22
70127;BME280;57491;42.694;23.314;2023-04-06T07:04:14;94795.09;;;6.68;50.45
70127;BME280;57491;42.694;23.314;2023-04-06T07:06:42;94796.72;;;6.61;50.14
70127;BME280;57491;42.694;23.314;2023-04-06T07:09:09;94801.88;;;6.53;49.71
70127;BME280;57491;42.694;23.314;2023-04-06T07:11:36;94797.63;;;6.36;51.09
70127;BME280;57491;42.694;23.314;2023-04-06T07:14:03;94797.81;;;6.50;50.04
70127;BME280;57491;42.694;23.314;2023-04-06T07:16:30;94792.97;;;6.71;50.14
70127;BME280;57491;42.694;23.314;2023-04-06T07:18:56;94794.28;;;6.84;50.98
70127;BME280;57491;42.694;23.314;2023-04-06T07:21:23;94793.91;;;7.03;49.40
70127;BME280;57491;42.694;23.314;2023-04-06T07:23:52;94786.66;;;6.90;48.74
70127;BME280;57491;42.694;23.314;2023-04-06T07:26:19;94795.53;;;7.20;50.85
70127;BME280;57491;42.694;23.314;2023-04-06T07:28:45;94795.22;;;7.62;51.87
70127;BME280;57491;42.694;23.314;2023-04-06T07:31:12;94788.84;;;7.81;50.15
70127;BME280;57491;42.694;23.314;2023-04-06T07:33:39;94797.34;;;7.58;46.92
70127;BME280;57491;42.694;23.314;2023-04-06T07:36:06;94792.13;;;7.11;46.86
70127;BME280;57491;42.694;23.314;2023-04-06T07:38:32;94798.41;;;7.33;50.94
70127;BME280;57491;42.694;23.314;2023-04-06T07:41:01;94795.22;;;7.15;46.29
70127;BME280;57491;42.694;23.314;2023-04-06T07:43:29;94794.91;;;6.94;47.19
70127;BME280;57491;42.694;23.314;2023-04-06T07:45:56;94791.13;;;7.29;49.37
70127;BME280;57491;42.694;23.314;2023-04-06T07:48:25;94788.72;;;7.27;46.85
70127;BME280;57491;42.694;23.314;2023-04-06T07:50:51;94794.72;;;7.20;47.26
70127;BME280;57491;42.694;23.314;2023-04-06T07:53:18;94785.44;;;7.41;47.82
70127;BME280;57491;42.694;23.314;2023-04-06T07:55:45;94780.81;;;7.68;47.37
70127;BME280;57491;42.694;23.314;2023-04-06T07:58:13;94786.72;;;7.84;46.16
70127;BME280;57491;42.694;23.314;2023-04-06T08:00:40;94772.50;;;8.11;45.17
70127;BME280;57491;42.694;23.314;2023-04-06T08:03:07;94783.75;;;7.95;45.32
70127;BME280;57491;42.694;23.314;2023-04-06T08:05:34;94773.34;;;8.34;45.24
70127;BME280;57491;42.694;23.314;2023-04-06T08:08:01;94776.47;;;8.52;44.75
70127;BME280;57491;42.694;23.314;2023-04-06T08:10:28;94779.28;;;8.66;43.50
70127;BME280;57491;42.694;23.314;2023-04-06T08:12:55;94776.59;;;8.36;44.25
70127;BME280;57491;42.694;23.314;2023-04-06T08:15:23;94774.97;;;8.58;44.88
70127;BME280;57491;42.694;23.314;2023-04-06T08:17:50;94779.78;;;8.84;41.91
70127;BME280;57491;42.694;23.314;2023-04-06T08:20:17;94777.63;;;8.87;41.63
70127;BME280;57491;42.694;23.314;2023-04-06T08:22:44;94780.22;;;8.73;42.34
70127;BME280;57491;42.694;23.314;2023-04-06T08:25:11;94769.16;;;8.93;42.88
70127;BME280;57491;42.694;23.314;2023-04-06T08:27:38;94780.66;;;9.14;41.65
70127;BME280;57491;42.694;23.314;2023-04-06T08:30:05;94776.34;;;9.21;42.61
70127;BME280;57491;42.694;23.314;2023-04-06T08:32:33;94779.16;;;9.49;40.91
70127;BME280;57491;42.694;23.314;2023-04-06T08:35:00;94777.00;;;9.67;39.95
70127;BME280;57491;42.694;23.314;2023-04-06T08:37:27;94780.75;;;10.15;39.88
70127;BME280;57491;42.694;23.314;2023-04-06T08:39:54;94770.53;;;10.28;39.58
70127;BME280;57491;42.694;23.314;2023-04-06T08:42:21;94775.72;;;10.28;39.45
70127;BME280;57491;42.694;23.314;2023-04-06T08:44:48;94782.84;;;10.41;42.30
70127;BME280;57491;42.694;23.314;2023-04-06T08:47:15;94777.38;;;10.71;38.99
70127;BME280;57491;42.694;23.314;2023-04-06T08:49:43;94777.59;;;10.55;39.14
70127;BME280;57491;42.694;23.314;2023-04-06T08:52:11;94781.81;;;10.78;41.14
70127;BME280;57491;42.694;23.314;2023-04-06T08:54:38;94784.69;;;11.38;38.13
70127;BME280;57491;42.694;23.314;2023-04-06T08:57:05;94785.59;;;11.31;38.65
70127;BME280;57491;42.694;23.314;2023-04-06T08:59:32;94779.22;;;11.05;36.70
70127;BME280;57491;42.694;23.314;2023-04-06T09:01:59;94779.41;;;10.76;38.20
70127;BME280;57491;42.694;23.314;2023-04-06T09:04:27;94770.28;;;10.87;37.40
70127;BME280;57491;42.694;23.314;2023-04-06T09:06:55;94782.00;;;11.04;36.81
70127;BME280;57491;42.694;23.314;2023-04-06T09:09:22;94776.97;;;11.24;37.77
70127;BME280;57491;42.694;23.314;2023-04-06T09:11:50;94771.19;;;11.28;35.94
70127;BME280;57491;42.694;23.314;2023-04-06T09:14:32;94769.56;;;11.21;37.12
70127;BME280;57491;42.694;23.314;2023-04-06T09:16:59;94773.47;;;11.38;37.30
70127;BME280;57491;42.694;23.314;2023-04-06T09:19:26;94770.22;;;11.36;35.25
70127;BME280;57491;42.694;23.314;2023-04-06T09:22:02;94769.41;;;11.29;38.77
70127;BME280;57491;42.694;23.314;2023-04-06T09:24:38;94761.53;;;11.91;39.69
70127;BME280;57491;42.694;23.314;2023-04-06T09:27:05;94758.09;;;12.38;35.70
70127;BME280;57491;42.694;23.314;2023-04-06T09:29:32;94758.13;;;12.64;34.20
70127;BME280;57491;42.694;23.314;2023-04-06T09:32:03;94765.56;;;12.74;34.10
70127;BME280;57491;42.694;23.314;2023-04-06T09:34:30;94761.56;;;12.84;34.73
70127;BME280;57491;42.694;23.314;2023-04-06T09:36:57;94753.72;;;13.04;33.94
70127;BME280;57491;42.694;23.314;2023-04-06T09:39:26;94765.56;;;12.80;33.79
70127;BME280;57491;42.694;23.314;2023-04-06T09:41:53;94771.19;;;11.97;34.85
70127;BME280;57491;42.694;23.314;2023-04-06T09:44:21;94752.56;;;11.25;35.79
70127;BME280;57491;42.694;23.314;2023-04-06T09:46:49;94759.50;;;10.90;37.04
70127;BME280;57491;42.694;23.314;2023-04-06T09:49:16;94757.06;;;11.09;39.63
70127;BME280;57491;42.694;23.314;2023-04-06T09:51:45;94758.03;;;11.36;36.25
70127;BME280;57491;42.694;23.314;2023-04-06T09:54:15;94741.78;;;11.00;36.24
70127;BME280;57491;42.694;23.314;2023-04-06T09:56:45;94746.13;;;10.44;37.22
70127;BME280;57491;42.694;23.314;2023-04-06T09:59:13;94763.03;;;10.18;38.13
70127;BME280;57491;42.694;23.314;2023-04-06T10:01:40;94758.56;;;10.12;37.64
70127;BME280;57491;42.694;23.314;2023-04-06T10:04:10;94771.09;;;10.09;39.04
70127;BME280;57491;42.694;23.314;2023-04-06T10:06:40;94761.66;;;10.22;38.67
70127;BME280;57491;42.694;23.314;2023-04-06T10:09:07;94760.78;;;10.30;39.10
70127;BME280;57491;42.694;23.314;2023-04-06T10:11:34;94752.00;;;11.01;42.58
70127;BME280;57491;42.694;23.314;2023-04-06T10:14:03;94758.25;;;11.41;35.55
70127;BME280;57491;42.694;23.314;2023-04-06T10:16:30;94763.63;;;11.05;38.54
70127;BME280;57491;42.694;23.314;2023-04-06T10:18:58;94756.81;;;11.04;36.77
70127;BME280;57491;42.694;23.314;2023-04-06T10:21:28;94750.34;;;11.56;37.36
70127;BME280;57491;42.694;23.314;2023-04-06T10:23:57;94751.44;;;11.40;35.63
70127;BME280;57491;42.694;23.314;2023-04-06T10:26:24;94748.88;;;11.81;35.44
70127;BME280;57491;42.694;23.314;2023-04-06T10:28:51;94743.75;;;12.07;33.88
70127;BME280;57491;42.694;23.314;2023-04-06T10:31:25;94748.06;;;12.41;34.44
70127;BME280;57491;42.694;23.314;2023-04-06T10:33:56;94746.47;;;12.53;33.06
70127;BME280;57491;42.694;23.314;2023-04-06T10:36:23;94742.63;;;12.43;32.66
70127;BME280;57491;42.694;23.314;2023-04-06T10:38:53;94739.06;;;12.57;32.29
70127;BME280;57491;42.694;23.314;2023-04-06T10:41:21;94736.88;;;12.80;32.31
70127;BME280;57491;42.694;23.314;2023-04-06T10:43:54;94736.88;;;12.80;33.45
70127;BME280;57491;42.694;23.314;2023-04-06T10:46:25;94740.69;;;12.97;32.49
70127;BME280;57491;42.694;23.314;2023-04-06T10:48:52;94731.63;;;13.39;32.69
70127;BME280;57491;42.694;23.314;2023-04-06T10:51:24;94740.69;;;12.97;31.35
70127;BME280;57491;42.694;23.314;2023-04-06T10:53:52;94733.84;;;13.03;32.93
70127;BME280;57491;42.694;23.314;2023-04-06T10:56:21;94732.56;;;13.65;32.25
70127;BME280;57491;42.694;23.314;2023-04-06T10:58:48;94750.84;;;13.71;35.45
70127;BME280;57491;42.694;23.314;2023-04-06T11:01:15;94743.00;;;13.71;31.49
70127;BME280;57491;42.694;23.314;2023-04-06T11:03:44;94730.56;;;13.67;34.17
70127;BME280;57491;42.694;23.314;2023-04-06T11:06:17;94723.78;;;13.39;31.35
70127;BME280;57491;42.694;23.314;2023-04-06T11:08:44;94722.59;;;13.35;32.03
70127;BME280;57491;42.694;23.314;2023-04-06T11:11:11;94723.81;;;12.93;31.25
70127;BME280;57491;42.694;23.314;2023-04-06T11:13:41;94725.63;;;12.80;32.52
70127;BME280;57491;42.694;23.314;2023-04-06T11:16:14;94721.00;;;12.75;32.64
70127;BME280;57491;42.694;23.314;2023-04-06T11:18:53;94718.34;;;12.29;32.85
70127;BME280;57491;42.694;23.314;2023-04-06T11:21:31;94721.13;;;11.67;33.95
70127;BME280;57491;42.694;23.314;2023-04-06T11:24:05;94710.44;;;11.83;37.96
70127;BME280;57491;42.694;23.314;2023-04-06T11:26:36;94703.25;;;11.98;33.97
70127;BME280;57491;42.694;23.314;2023-04-06T11:29:03;94710.03;;;11.86;33.47
70127;BME280;57491;42.694;23.314;2023-04-06T11:31:30;94707.75;;;11.36;34.75
70127;BME280;57491;42.694;23.314;2023-04-06T11:33:58;94706.03;;;11.49;35.03
70127;BME280;57491;42.694;23.314;2023-04-06T11:36:26;94712.09;;;11.63;34.33
70127;BME280;57491;42.694;23.314;2023-04-06T11:38:53;94707.47;;;11.52;38.43
70127;BME280;57491;42.694;23.314;2023-04-06T11:41:23;94703.47;;;11.56;34.08
70127;BME280;57491;42.694;23.314;2023-04-06T11:43:50;94694.38;;;11.04;34.90
70127;BME280;57491;42.694;23.314;2023-04-06T11:46:17;94705.31;;;10.65;37.30
70127;BME280;57491;42.694;23.314;2023-04-06T11:48:44;94695.94;;;10.99;37.40
70127;BME280;57491;42.694;23.314;2023-04-06T11:51:13;94689.63;;;11.14;35.58
70127;BME280;57491;42.694;23.314;2023-04-06T11:53:47;94681.66;;;11.23;35.77
70127;BME280;57491;42.694;23.314;2023-04-06T11:56:22;94685.06;;;11.16;35.22
70127;BME280;57491;42.694;23.314;2023-04-06T11:58:49;94689.41;;;11.09;36.47
70127;BME280;57491;42.694;23.314;2023-04-06T12:01:16;94685.03;;;10.82;36.16
70127;BME280;57491;42.694;23.314;2023-04-06T12:03:43;94687.13;;;10.23;37.11
70127;BME280;57491;42.694;23.314;2023-04-06T12:06:12;94692.59;;;9.92;37.91
70127;BME280;57491;42.694;23.314;2023-04-06T12:08:39;94694.00;;;9.73;37.89
70127;BME280;57491;42.694;23.314;2023-04-06T12:11:06;94681.91;;;9.80;38.83
70127;BME280;57491;42.694;23.314;2023-04-06T12:13:33;94676.91;;;9.64;37.84
70127;BME280;57491;42.694;23.314;2023-04-06T12:16:00;94679.72;;;9.63;43.63
70127;BME280;57491;42.694;23.314;2023-04-06T12:18:26;94682.78;;;9.73;38.69
70127;BME280;57491;42.694;23.314;2023-04-06T12:20:53;94678.50;;;9.80;38.44
70127;BME280;57491;42.694;23.314;2023-04-06T12:23:21;94683.44;;;9.75;39.48
70127;BME280;57491;42.694;23.314;2023-04-06T12:25:49;94681.13;;;9.65;39.23
70127;BME280;57491;42.694;23.314;2023-04-06T12:28:16;94677.59;;;9.73;38.70
70127;BME280;57491;42.694;23.314;2023-04-06T12:30:43;94676.44;;;9.75;41.45
70127;BME280;57491;42.694;23.314;2023-04-06T12:33:10;94677.47;;;9.60;40.25
70127;BME280;57491;42.694;23.314;2023-04-06T12:35:36;94672.34;;;9.30;38.61
70127;BME280;57491;42.694;23.314;2023-04-06T12:38:04;94672.31;;;9.45;39.23
70127;BME280;57491;42.694;23.314;2023-04-06T12:40:35;94680.44;;;9.57;41.45
70127;BME280;57491;42.694;23.314;2023-04-06T12:43:02;94675.28;;;9.78;38.13
70127;BME280;57491;42.694;23.314;2023-04-06T12:45:30;94661.81;;;9.89;39.41
70127;BME280;57491;42.694;23.314;2023-04-06T12:47:56;94672.94;;;10.04;39.42
70127;BME280;57491;42.694;23.314;2023-04-06T12:50:23;94655.81;;;9.67;39.53
70127;BME280;57491;42.694;23.314;2023-04-06T12:52:50;94661.53;;;9.63;38.88
70127;BME280;57491;42.694;23.314;2023-04-06T12:55:17;94662.97;;;9.51;38.19
70127;BME280;57491;42.694;23.314;2023-04-06T12:57:45;94662.53;;;9.62;38.72
70127;BME280;57491;42.694;23.314;2023-04-06T13:00:13;94663.50;;;9.61;40.54